Time;durP1;ratioP1;P1;durP2;ratioP2;P2;SDS_P1;SDS_P2;PMS_P1;PMS_P2;Temp;Humidity;BMP_temperature;BMP_pressure;BME280_temperature;BME280_humidity;BME280_pressure;Samples;Min_cycle;Max_cycle;Signal;HPM_P1;HPM_P2
2023/03/10 00:01:23;;;;;;;10.87;2.73;;;9.40;99.90;;;;;;5071462;28;20033;-54
2023/03/10 00:03:50;;;;;;;14.73;2.97;;;9.40;99.90;;;;;;5071884;28;20047;-56
2023/03/10 00:06:18;;;;;;;15.50;2.63;;;9.40;99.90;;;;;;5072053;28;20028;-55
2023/03/10 00:08:44;;;;;;;14.97;3.70;;;9.40;99.90;;;;;;5071903;28;20472;-56
2023/03/10 00:11:10;;;;;;;14.93;3.17;;;9.40;99.90;;;;;;5071829;28;20096;-54
2023/03/10 00:13:37;;;;;;;15.97;3.60;;;9.40;99.90;;;;;;5071499;28;20119;-53
2023/03/10 00:16:03;;;;;;;12.00;3.10;;;9.40;99.90;;;;;;5071816;28;20104;-55
2023/03/10 00:18:29;;;;;;;11.33;3.53;;;9.40;99.90;;;;;;5071536;28;20067;-52
2023/03/10 00:20:54;;;;;;;17.47;4.17;;;9.40;99.90;;;;;;5071621;28;20060;-54
2023/03/10 00:23:21;;;;;;;10.47;3.00;;;9.40;99.90;;;;;;5071468;28;20020;-54
2023/03/10 00:25:58;;;;;;;10.47;3.10;;;9.40;99.90;;;;;;5071602;28;20123;-54
2023/03/10 00:28:25;;;;;;;16.53;3.50;;;9.40;99.90;;;;;;5071504;28;20466;-55
2023/03/10 00:31:03;;;;;;;12.83;2.97;;;9.40;99.90;;;;;;5071566;28;20039;-54
2023/03/10 00:33:30;;;;;;;11.50;3.03;;;9.40;99.90;;;;;;5071177;28;20029;-54
2023/03/10 00:36:06;;;;;;;11.13;2.80;;;9.50;99.90;;;;;;5053483;28;20036;-51
2023/03/10 00:38:32;;;;;;;15.67;3.23;;;9.50;99.90;;;;;;5053108;28;20028;-53
2023/03/10 00:41:06;;;;;;;14.43;3.10;;;9.50;99.90;;;;;;5071464;28;20028;-53
2023/03/10 00:43:33;;;;;;;8.97;2.63;;;9.50;99.90;;;;;;5071088;28;20489;-53
2023/03/10 00:45:58;;;;;;;4.77;1.70;;;9.40;99.90;;;;;;5071407;28;20115;-55
2023/03/10 00:48:24;;;;;;;6.03;1.90;;;9.50;99.90;;;;;;5070990;28;20143;-55
2023/03/10 00:50:50;;;;;;;5.47;2.50;;;9.50;99.90;;;;;;5053193;28;20039;-53
2023/03/10 00:53:16;;;;;;;6.03;2.50;;;9.50;99.90;;;;;;5070913;28;20037;-54
2023/03/10 00:55:43;;;;;;;9.47;3.73;;;9.50;99.90;;;;;;5071069;28;20120;-54
2023/03/10 00:58:08;;;;;;;13.17;3.30;;;9.60;99.90;;;;;;5052817;28;20485;-53
2023/03/10 01:00:34;;;;;;;6.93;2.20;;;9.60;99.90;;;;;;5070833;28;20031;-53
2023/03/10 01:03:01;;;;;;;6.13;2.13;;;9.80;99.90;;;;;;5070865;28;20025;-54
2023/03/10 01:05:30;;;;;;;2.80;1.20;;;9.80;99.90;;;;;;5070774;28;20031;-54
2023/03/10 01:07:56;;;;;;;2.30;1.20;;;9.80;99.90;;;;;;5071008;28;20406;-49
2023/03/10 01:10:22;;;;;;;5.03;1.30;;;9.80;99.90;;;;;;5070843;28;20024;-51
2023/03/10 01:12:47;;;;;;;2.70;1.10;;;9.70;99.90;;;;;;5051864;28;20265;-53
2023/03/10 01:15:13;;;;;;;4.77;1.30;;;9.70;99.90;;;;;;5052691;28;20131;-50
2023/03/10 01:17:39;;;;;;;2.83;1.23;;;9.70;99.90;;;;;;5052534;28;20036;-51
2023/03/10 01:20:07;;;;;;;4.10;1.83;;;9.70;99.90;;;;;;5052560;28;20038;-55
2023/03/10 01:22:32;;;;;;;2.63;1.03;;;9.70;99.90;;;;;;5070668;28;20029;-55
2023/03/10 01:24:58;;;;;;;2.60;1.40;;;9.70;99.90;;;;;;5052584;28;20059;-54
2023/03/10 01:27:24;;;;;;;3.20;1.33;;;9.60;99.90;;;;;;5070746;28;20047;-56
2023/03/10 01:29:50;;;;;;;2.83;1.23;;;9.50;99.90;;;;;;5070427;28;20496;-56
2023/03/10 01:32:16;;;;;;;4.73;1.40;;;9.60;99.90;;;;;;5070444;28;20032;-53
2023/03/10 01:34:43;;;;;;;5.00;1.50;;;9.60;99.90;;;;;;5052365;28;20031;-54
2023/03/10 01:37:08;;;;;;;2.67;1.33;;;9.50;99.90;;;;;;5052338;28;20028;-52
2023/03/10 01:39:34;;;;;;;4.17;1.73;;;9.50;99.90;;;;;;5070316;28;20032;-53
2023/03/10 01:42:00;;;;;;;4.07;1.63;;;9.50;99.90;;;;;;5070480;28;20021;-52
2023/03/10 01:44:26;;;;;;;4.83;2.10;;;9.50;99.90;;;;;;5052238;28;20391;-52
2023/03/10 01:46:55;;;;;;;5.00;2.27;;;9.50;99.90;;;;;;5052163;28;20028;-54
2023/03/10 01:49:47;;;;;;;4.97;2.53;;;9.40;99.90;;;;;;5052326;28;20033;-52
2023/03/10 01:52:23;;;;;;;;;;;9.40;99.90;;;;;;5070276;28;20101;-53
2023/03/10 01:55:14;;;;;;;7.27;2.63;;;9.30;99.90;;;;;;5070143;28;19908;-53
2023/03/10 01:57:50;;;;;;;4.63;2.70;;;9.30;99.90;;;;;;5051875;28;20041;-54
2023/03/10 02:00:17;;;;;;;4.57;2.63;;;9.30;99.90;;;;;;5052112;28;20119;-53
2023/03/10 02:03:06;;;;;;;5.32;2.70;;;9.30;99.90;;;;;;5070220;28;20025;-54
2023/03/10 02:05:40;;;;;;;3.90;2.20;;;9.30;99.90;;;;;;5052061;28;20550;-55
2023/03/10 02:08:08;;;;;;;6.37;2.60;;;9.20;99.90;;;;;;5070098;28;20025;-56
2023/03/10 02:10:33;;;;;;;5.27;2.87;;;9.20;99.90;;;;;;5052056;28;20138;-54
2023/03/10 02:12:59;;;;;;;5.33;2.23;;;9.20;99.90;;;;;;5069987;28;20029;-54
2023/03/10 02:15:25;;;;;;;4.50;2.20;;;9.20;99.90;;;;;;5051955;28;20036;-53
2023/03/10 02:17:52;;;;;;;5.97;2.47;;;9.20;99.90;;;;;;5052085;28;20485;-54
2023/03/10 02:20:53;;;;;;;5.73;2.73;;;9.20;99.90;;;;;;5069880;28;20056;-54
2023/03/10 02:23:31;;;;;;;4.27;2.77;;;9.10;99.90;;;;;;5009733;28;20041;-53
2023/03/10 02:26:08;;;;;;;7.27;3.30;;;9.10;99.90;;;;;;5073882;28;20028;-54
2023/03/10 02:28:34;;;;;;;7.33;3.50;;;9.10;99.90;;;;;;5073517;28;20036;-51
2023/03/10 02:31:01;;;;;;;6.43;3.70;;;9.20;99.90;;;;;;5055886;28;20441;-53
2023/03/10 02:33:30;;;;;;;7.67;4.30;;;9.10;99.90;;;;;;5055599;28;20029;-55
2023/03/10 02:36:15;;;;;;;7.63;4.30;;;9.20;99.90;;;;;;5055825;28;20028;-53
2023/03/10 02:38:42;;;;;;;8.47;4.47;;;9.10;99.90;;;;;;5055625;28;20078;-52
2023/03/10 02:41:35;;;;;;;9.10;4.47;;;9.20;99.90;;;;;;5073395;28;20506;-53
2023/03/10 02:44:05;;;;;;;8.97;5.60;;;9.20;99.90;;;;;;5055397;28;20024;-54
2023/03/10 02:46:31;;;;;;;12.83;6.70;;;9.30;99.90;;;;;;5073367;28;20028;-54
2023/03/10 02:48:59;;;;;;;15.90;8.97;;;9.20;99.90;;;;;;5055432;28;20058;-54
2023/03/10 02:51:34;;;;;;;15.63;8.40;;;9.20;99.90;;;;;;5055489;28;20482;-53
2023/03/10 02:54:06;;;;;;;20.67;10.93;;;9.20;99.90;;;;;;5055168;28;20028;-50
2023/03/10 02:56:33;;;;;;;23.07;12.07;;;9.30;99.90;;;;;;5055196;28;20031;-55
2023/03/10 02:58:59;;;;;;;12.23;7.27;;;9.20;99.90;;;;;;5073290;28;20032;-54
2023/03/10 03:01:25;;;;;;;13.93;6.30;;;9.30;99.90;;;;;;5055417;28;20021;-52
2023/03/10 03:03:52;;;;;;;11.60;5.80;;;9.30;99.90;;;;;;5054886;28;20546;-54
2023/03/10 03:06:19;;;;;;;13.13;6.10;;;9.40;99.90;;;;;;5055162;28;20162;-53
2023/03/10 03:08:45;;;;;;;11.10;6.07;;;9.40;99.90;;;;;;5055064;28;20025;-55
2023/03/10 03:11:15;;;;;;;12.57;5.95;;;9.40;99.90;;;;;;5055168;28;20036;-52
2023/03/10 03:13:41;;;;;;;13.20;5.20;;;9.40;99.90;;;;;;5054704;28;20520;-54
2023/03/10 03:16:09;;;;;;;10.07;4.73;;;9.40;99.90;;;;;;5055278;28;20025;-52
2023/03/10 03:18:35;;;;;;;10.83;5.10;;;9.40;99.90;;;;;;5054609;28;20559;-54
2023/03/10 03:21:05;;;;;;;10.67;4.93;;;9.50;99.90;;;;;;5072769;28;20485;-54
2023/03/10 03:23:33;;;;;;;9.63;5.00;;;9.40;99.90;;;;;;5054525;28;20036;-49
2023/03/10 03:25:59;;;;;;;13.80;5.80;;;9.40;99.90;;;;;;5054786;28;20112;-52
2023/03/10 03:28:25;;;;;;;11.40;4.63;;;9.40;99.90;;;;;;5054643;28;20477;-51
2023/03/10 03:30:51;;;;;;;11.67;3.63;;;9.40;99.90;;;;;;5054665;28;20507;-50
2023/03/10 03:33:17;;;;;;;7.03;3.20;;;9.40;99.90;;;;;;5072677;28;20028;-53
2023/03/10 03:35:44;;;;;;;10.60;2.90;;;9.40;99.90;;;;;;5053678;28;20052;-53
2023/03/10 03:38:10;;;;;;;8.97;2.80;;;9.50;99.90;;;;;;5054431;28;20032;-52
2023/03/10 03:40:37;;;;;;;7.10;2.43;;;9.50;99.90;;;;;;5054412;28;20032;-53
2023/03/10 03:43:04;;;;;;;8.60;2.97;;;9.50;99.90;;;;;;5054839;28;20484;-49
2023/03/10 03:45:31;;;;;;;6.43;2.23;;;9.50;99.90;;;;;;5054356;28;20052;-50
2023/03/10 03:47:58;;;;;;;8.37;2.63;;;9.40;99.90;;;;;;5054165;28;20025;-51
2023/03/10 03:50:25;;;;;;;10.20;3.77;;;9.50;99.90;;;;;;5054371;28;20111;-54
2023/03/10 03:52:54;;;;;;;11.07;4.70;;;9.50;99.90;;;;;;5054205;28;20115;-51
2023/03/10 03:55:22;;;;;;;12.67;4.33;;;9.50;99.90;;;;;;5054097;28;20060;-50
2023/03/10 03:57:50;;;;;;;9.97;3.50;;;9.40;99.90;;;;;;5054026;28;20405;-51
2023/03/10 04:00:19;;;;;;;10.13;3.10;;;9.40;99.90;;;;;;5054013;28;20035;-53
2023/03/10 04:02:48;;;;;;;8.00;2.40;;;9.40;99.90;;;;;;5054110;28;20404;-53
2023/03/10 04:05:15;;;;;;;5.60;2.30;;;9.40;99.90;;;;;;5071929;28;20523;-51
2023/03/10 04:07:42;;;;;;;3.77;1.63;;;9.40;99.90;;;;;;5054061;28;20135;-52
2023/03/10 04:10:12;;;;;;;7.47;2.10;;;9.40;99.90;;;;;;5053982;28;20028;-54
2023/03/10 04:12:38;;;;;;;9.15;1.88;;;9.30;99.90;;;;;;5054026;28;20144;-53
2023/03/10 04:15:06;;;;;;;10.87;3.10;;;9.30;99.90;;;;;;5053724;28;20519;-53
2023/03/10 04:17:32;;;;;;;9.43;2.37;;;9.30;99.90;;;;;;5053795;28;20028;-51
2023/03/10 04:19:58;;;;;;;9.97;2.30;;;9.20;99.90;;;;;;5053691;28;20111;-55
2023/03/10 04:22:23;;;;;;;10.80;2.20;;;9.20;99.90;;;;;;5053690;28;20025;-55
2023/03/10 04:24:49;;;;;;;7.10;1.97;;;9.20;99.90;;;;;;5053565;28;20516;-53
2023/03/10 04:27:15;;;;;;;5.40;2.00;;;9.20;99.90;;;;;;5053565;28;20128;-53
2023/03/10 04:29:43;;;;;;;5.87;2.20;;;9.10;99.90;;;;;;5053673;28;20473;-52
2023/03/10 04:32:08;;;;;;;7.23;2.10;;;9.10;99.90;;;;;;5071454;28;20094;-52
2023/03/10 04:34:38;;;;;;;5.67;1.70;;;9.00;99.90;;;;;;5053440;28;20123;-51
2023/03/10 04:37:05;;;;;;;7.67;1.97;;;9.00;99.90;;;;;;5053286;28;20029;-52
2023/03/10 04:39:31;;;;;;;5.10;1.80;;;9.00;99.90;;;;;;5053359;28;20056;-55
2023/03/10 04:41:57;;;;;;;7.30;2.30;;;9.00;99.90;;;;;;5053138;28;20059;-53
2023/03/10 04:44:23;;;;;;;7.17;2.13;;;9.00;99.90;;;;;;5053168;28;20027;-54
2023/03/10 04:46:49;;;;;;;4.97;1.87;;;9.00;99.90;;;;;;5052897;28;20481;-52
2023/03/10 04:49:15;;;;;;;5.23;1.83;;;9.00;99.90;;;;;;5053290;28;20032;-54
2023/03/10 04:51:44;;;;;;;5.93;1.93;;;8.90;99.90;;;;;;5053046;28;20028;-50
2023/03/10 04:54:10;;;;;;;6.20;1.73;;;8.90;99.90;;;;;;5031228;22;20049;-53
2023/03/10 04:56:35;;;;;;;4.83;1.80;;;8.90;99.90;;;;;;5013258;28;20083;-54
2023/03/10 04:59:02;;;;;;;8.47;2.50;;;8.90;99.90;;;;;;5013314;28;20269;-56
2023/03/10 05:01:31;;;;;;;7.10;3.00;;;9.00;99.90;;;;;;5013401;28;20062;-54
2023/03/10 05:04:01;;;;;;;5.90;1.80;;;9.00;99.90;;;;;;5030417;28;20398;-53
2023/03/10 05:06:27;;;;;;;5.67;1.53;;;9.00;99.90;;;;;;5032919;28;20025;-53
2023/03/10 05:09:17;;;;;;;9.63;1.63;;;9.00;99.90;;;;;;5032747;28;20486;-53
2023/03/10 05:11:44;;;;;;;6.77;1.70;;;9.10;99.90;;;;;;5033052;28;20104;-52
2023/03/10 05:14:12;;;;;;;5.57;1.60;;;9.00;99.90;;;;;;5032701;28;20591;-53
2023/03/10 05:16:37;;;;;;;5.03;1.70;;;9.00;99.90;;;;;;5032823;28;20025;-55
2023/03/10 05:19:03;;;;;;;6.27;1.50;;;9.10;99.90;;;;;;5032722;28;20051;-54
2023/03/10 05:21:31;;;;;;;6.27;1.87;;;9.10;99.90;;;;;;5032982;28;20021;-54
2023/03/10 05:23:57;;;;;;;8.90;1.80;;;9.10;99.90;;;;;;5050332;28;20485;-55
2023/03/10 05:26:24;;;;;;;8.23;1.83;;;9.00;99.90;;;;;;5032374;28;20036;-55
2023/03/10 05:28:50;;;;;;;7.47;1.70;;;9.00;99.90;;;;;;5032649;28;20025;-54
2023/03/10 05:31:24;;;;;;;6.20;1.50;;;9.00;99.90;;;;;;5032865;28;20052;-54
2023/03/10 05:33:53;;;;;;;6.03;1.60;;;9.00;99.90;;;;;;5032420;28;20032;-54
2023/03/10 05:36:20;;;;;;;10.03;1.83;;;9.00;99.90;;;;;;5050236;28;20029;-52
2023/03/10 05:38:48;;;;;;;8.00;2.20;;;9.00;99.90;;;;;;5032601;28;20389;-54
2023/03/10 05:41:15;;;;;;;8.47;1.57;;;8.90;99.90;;;;;;5032448;28;20029;-53
2023/03/10 05:43:43;;;;;;;6.17;2.03;;;8.90;99.90;;;;;;5032206;28;20025;-53
2023/03/10 05:46:11;;;;;;;10.60;2.23;;;8.90;99.90;;;;;;5032506;28;20021;-54
2023/03/10 05:48:42;;;;;;;10.37;1.70;;;8.90;99.90;;;;;;5032354;28;20086;-50
2023/03/10 05:51:12;;;;;;;7.83;1.60;;;8.90;99.90;;;;;;5032400;28;20056;-52
2023/03/10 05:53:38;;;;;;;;;;;8.90;99.90;;;;;;5032605;28;20058;-54
2023/03/10 05:56:13;;;;;;;14.07;1.70;;;8.80;99.90;;;;;;5032453;28;19915;-53
2023/03/10 05:58:40;;;;;;;9.70;1.87;;;8.90;99.90;;;;;;5032473;28;20123;-52
2023/03/10 06:01:08;;;;;;;14.00;5.00;;;8.80;99.90;;;;;;5036357;28;20029;-53
2023/03/10 06:03:35;;;;;;;10.87;2.03;;;8.90;99.90;;;;;;5054013;28;20025;-53
2023/03/10 06:06:01;;;;;;;11.33;2.33;;;8.90;99.90;;;;;;5054550;28;20036;-49
2023/03/10 06:08:28;;;;;;;8.90;2.27;;;8.90;99.90;;;;;;5053989;28;20107;-55
2023/03/10 06:10:54;;;;;;;8.57;1.97;;;8.90;99.90;;;;;;5054284;28;20443;-54
2023/03/10 06:13:20;;;;;;;9.73;1.80;;;8.90;99.90;;;;;;5053987;28;20493;-51
2023/03/10 06:15:54;;;;;;;9.63;1.87;;;8.90;99.90;;;;;;5054168;28;20035;-54
2023/03/10 06:18:20;;;;;;;13.30;2.27;;;8.90;99.90;;;;;;5053939;28;20147;-52
2023/03/10 06:20:47;;;;;;;10.57;2.00;;;9.00;99.90;;;;;;5053756;28;20029;-52
2023/03/10 06:23:16;;;;;;;12.43;2.03;;;9.00;99.90;;;;;;5053994;28;20401;-53
2023/03/10 06:25:42;;;;;;;10.17;1.80;;;9.10;99.90;;;;;;5053930;28;20102;-53
2023/03/10 06:28:09;;;;;;;10.97;2.03;;;9.20;99.90;;;;;;5053694;28;20330;-51
2023/03/10 06:30:35;;;;;;;16.10;5.37;;;9.20;99.90;;;;;;5053737;28;20037;-53
2023/03/10 06:33:01;;;;;;;9.07;1.90;;;9.20;99.90;;;;;;5053972;28;20025;-52
2023/03/10 06:35:29;;;;;;;15.00;1.83;;;9.30;99.90;;;;;;5053795;28;20370;-54
2023/03/10 06:37:55;;;;;;;13.03;2.23;;;9.30;99.90;;;;;;5053730;28;20028;-54
2023/03/10 06:40:21;;;;;;;10.00;2.20;;;9.30;99.90;;;;;;5053611;28;20167;-53
2023/03/10 06:42:46;;;;;;;10.93;1.73;;;9.30;99.90;;;;;;5053667;28;20029;-54
2023/03/10 06:45:15;;;;;;;10.03;1.73;;;9.20;99.90;;;;;;5053364;28;20060;-50
2023/03/10 06:47:41;;;;;;;11.93;1.90;;;9.20;99.90;;;;;;5053385;28;20029;-51
2023/03/10 06:50:08;;;;;;;10.70;2.23;;;9.20;99.90;;;;;;5035452;28;20539;-51
2023/03/10 06:52:34;;;;;;;12.70;2.67;;;9.30;99.90;;;;;;5053316;28;20037;-52
2023/03/10 06:55:01;;;;;;;9.37;2.27;;;9.30;99.90;;;;;;5053144;28;20103;-53
2023/03/10 06:57:27;;;;;;;13.93;2.47;;;9.30;99.90;;;;;;5053131;28;20116;-54
2023/03/10 06:59:53;;;;;;;11.67;2.40;;;9.20;99.90;;;;;;5053050;28;20037;-54
2023/03/10 07:02:19;;;;;;;11.27;2.33;;;9.30;99.90;;;;;;5053321;28;20393;-54
2023/03/10 07:04:45;;;;;;;9.43;1.90;;;9.20;99.90;;;;;;5053060;28;20029;-53
2023/03/10 07:07:14;;;;;;;9.93;1.93;;;9.30;99.90;;;;;;5052761;28;20124;-52
2023/03/10 07:09:40;;;;;;;12.45;2.33;;;9.30;99.90;;;;;;5052795;28;20032;-53
2023/03/10 07:12:06;;;;;;;11.30;2.47;;;9.30;99.90;;;;;;5053020;28;20036;-52
2023/03/10 07:14:32;;;;;;;12.00;2.33;;;9.40;99.90;;;;;;5053091;28;20068;-54
2023/03/10 07:16:57;;;;;;;10.73;2.30;;;9.40;99.90;;;;;;5035136;28;20111;-54
2023/03/10 07:19:24;;;;;;;11.97;1.93;;;9.40;99.90;;;;;;5052844;28;20033;-53
2023/03/10 07:21:50;;;;;;;9.03;1.80;;;9.40;99.90;;;;;;5052930;28;20025;-54
2023/03/10 07:24:16;;;;;;;10.70;2.33;;;9.50;99.90;;;;;;5052623;28;20029;-53
2023/03/10 07:26:42;;;;;;;11.43;2.30;;;9.40;99.90;;;;;;5052539;28;20473;-53
2023/03/10 07:29:08;;;;;;;13.17;2.33;;;9.40;99.90;;;;;;5052684;28;20029;-54
2023/03/10 07:31:35;;;;;;;9.00;2.00;;;9.40;99.90;;;;;;5052852;28;20023;-53
2023/03/10 07:34:01;;;;;;;10.53;2.37;;;9.40;99.90;;;;;;5052463;28;20028;-53
2023/03/10 07:36:28;;;;;;;20.50;2.97;;;9.40;99.90;;;;;;5052569;28;20411;-51
2023/03/10 07:38:54;;;;;;;8.27;2.00;;;9.40;99.90;;;;;;5052598;28;20500;-54
2023/03/10 07:41:21;;;;;;;10.97;1.73;;;9.40;99.90;;;;;;5052514;28;20691;-56
2023/03/10 07:43:51;;;;;;;9.93;2.43;;;9.40;99.90;;;;;;5052196;28;20090;-56
2023/03/10 07:46:16;;;;;;;9.07;1.80;;;9.40;99.90;;;;;;5052569;28;20032;-52
2023/03/10 07:48:43;;;;;;;11.33;2.30;;;9.40;99.90;;;;;;5052422;28;20530;-51
2023/03/10 07:51:09;;;;;;;9.20;2.10;;;9.40;99.90;;;;;;5052384;28;20029;-56
2023/03/10 07:53:35;;;;;;;9.97;2.33;;;9.40;99.90;;;;;;5052001;28;20489;-53
2023/03/10 07:56:06;;;;;;;9.73;2.80;;;9.40;99.90;;;;;;5052212;28;20029;-52
2023/03/10 07:58:32;;;;;;;8.47;1.80;;;9.40;99.90;;;;;;5051977;28;20037;-52
2023/03/10 08:00:58;;;;;;;13.97;4.67;;;9.40;99.90;;;;;;5052336;28;20108;-52
2023/03/10 08:03:25;;;;;;;10.50;1.97;;;9.40;99.90;;;;;;5051860;28;20554;-51
2023/03/10 08:05:51;;;;;;;9.37;2.10;;;9.40;99.90;;;;;;5051929;28;20477;-54
2023/03/10 08:08:17;;;;;;;10.63;2.63;;;9.40;99.90;;;;;;5051899;28;20025;-52
2023/03/10 08:10:43;;;;;;;11.90;1.80;;;9.30;99.90;;;;;;5051917;28;20529;-55
2023/03/10 08:13:09;;;;;;;11.03;2.10;;;9.40;99.90;;;;;;5051853;28;20112;-55
2023/03/10 08:15:37;;;;;;;13.87;2.77;;;9.40;99.90;;;;;;5051788;28;20039;-55
2023/03/10 08:18:06;;;;;;;7.32;1.80;;;9.50;99.90;;;;;;5051524;28;20076;-56
2023/03/10 08:20:34;;;;;;;10.23;2.08;;;9.50;99.90;;;;;;5033968;28;20509;-54
2023/03/10 08:22:59;;;;;;;7.27;2.27;;;9.60;99.90;;;;;;5051122;28;20029;-51
2023/03/10 08:25:25;;;;;;;9.30;2.07;;;9.60;99.90;;;;;;5051601;28;20021;-55
2023/03/10 08:27:51;;;;;;;9.83;2.20;;;9.70;99.90;;;;;;5051612;28;20367;-54
2023/03/10 08:30:17;;;;;;;11.20;2.43;;;9.70;99.90;;;;;;5051730;28;20036;-55
2023/03/10 08:32:43;;;;;;;12.50;2.57;;;9.80;99.90;;;;;;5051453;28;20033;-53
2023/03/10 08:35:09;;;;;;;11.57;2.23;;;9.80;99.90;;;;;;5051331;28;20033;-55
2023/03/10 08:37:34;;;;;;;12.20;2.30;;;9.80;99.90;;;;;;5033425;28;20039;-50
2023/03/10 08:40:00;;;;;;;12.33;2.37;;;9.80;99.90;;;;;;5051301;28;20037;-54
2023/03/10 08:42:26;;;;;;;14.50;2.43;;;9.90;99.90;;;;;;5051350;28;20136;-55
2023/03/10 08:44:55;;;;;;;7.03;2.20;;;10.00;99.90;;;;;;5051213;28;20028;-55
2023/03/10 08:47:22;;;;;;;6.80;2.20;;;10.00;99.90;;;;;;5051196;28;20409;-55
2023/03/10 08:49:48;;;;;;;10.00;2.53;;;10.10;99.90;;;;;;5051103;28;20554;-54
2023/03/10 08:52:14;;;;;;;12.07;2.47;;;10.20;99.90;;;;;;5050941;28;20405;-54
2023/03/10 08:54:39;;;;;;;11.43;2.53;;;10.20;99.90;;;;;;5051276;28;20029;-53
2023/03/10 08:57:05;;;;;;;5.80;1.90;;;10.30;99.90;;;;;;5051042;28;20514;-55
2023/03/10 08:59:31;;;;;;;12.50;2.70;;;10.40;99.90;;;;;;5050946;28;20064;-53
2023/03/10 09:01:56;;;;;;;14.17;2.87;;;10.60;99.90;;;;;;5051107;28;20283;-55
2023/03/10 09:04:22;;;;;;;14.83;2.60;;;10.60;99.90;;;;;;5050768;28;20052;-54
2023/03/10 09:06:48;;;;;;;9.67;2.33;;;10.60;99.90;;;;;;5050778;28;20237;-52
2023/03/10 09:09:13;;;;;;;11.97;2.97;;;10.70;99.90;;;;;;5050907;28;20439;-51
2023/03/10 09:11:40;;;;;;;10.77;2.60;;;10.60;99.90;;;;;;5050840;28;20432;-54
2023/03/10 09:14:07;;;;;;;9.43;3.33;;;10.60;99.90;;;;;;5050589;28;20048;-54
2023/03/10 09:16:33;;;;;;;15.30;3.27;;;10.70;99.90;;;;;;5050571;28;20159;-53
2023/03/10 09:18:59;;;;;;;8.63;2.10;;;10.90;99.90;;;;;;5032865;28;20106;-52
2023/03/10 09:21:27;;;;;;;10.37;2.73;;;11.00;99.90;;;;;;5050569;28;20029;-55
2023/03/10 09:23:53;;;;;;;15.63;3.17;;;11.10;99.90;;;;;;5050470;28;20493;-54
2023/03/10 09:26:20;;;;;;;14.03;2.37;;;11.10;99.90;;;;;;5050536;28;20087;-55
2023/03/10 09:28:48;;;;;;;9.50;1.83;;;11.10;99.90;;;;;;5050722;28;20045;-57
2023/03/10 09:31:17;;;;;;;14.17;2.40;;;11.10;99.90;;;;;;5050604;28;20507;-53
2023/03/10 09:33:42;;;;;;;16.35;2.42;;;11.20;99.90;;;;;;5049415;28;20039;-53
2023/03/10 09:36:08;;;;;;;10.43;2.00;;;11.20;99.90;;;;;;5050565;28;20036;-52
2023/03/10 09:38:34;;;;;;;12.70;2.40;;;11.20;99.90;;;;;;5050490;28;20035;-53
2023/03/10 09:41:12;;;;;;;12.50;2.05;;;11.20;99.90;;;;;;5050605;28;20108;-51
2023/03/10 09:43:43;;;;;;;15.57;2.45;;;11.30;99.90;;;;;;5050297;28;20037;-51
2023/03/10 09:46:23;;;;;;;14.63;2.50;;;11.30;99.90;;;;;;5050355;28;20083;-51
2023/03/10 09:49:09;;;;;;;10.70;2.97;;;11.30;99.90;;;;;;5050715;28;20025;-54
2023/03/10 09:51:39;;;;;;;14.97;2.07;;;11.30;99.90;;;;;;5050427;28;20025;-54
2023/03/10 09:54:50;;;;;;;9.88;1.95;;;11.30;99.90;;;;;;5049946;28;20037;-55
2023/03/10 09:57:20;;;;;;;10.18;2.08;;;11.50;99.90;;;;;;4949413;29;20542;-52
2023/03/10 09:59:48;;;;;;;11.00;2.00;;;11.60;99.90;;;;;;5032320;28;20067;-54
2023/03/10 10:02:33;;;;;;;10.27;2.38;;;11.70;99.90;;;;;;5050231;28;20508;-55
2023/03/10 10:05:02;;;;;;;11.63;2.13;;;11.90;99.90;;;;;;5050080;28;20083;-54
2023/03/10 10:07:41;;;;;;;13.32;2.88;;;12.20;99.90;;;;;;5032036;28;20511;-56
2023/03/10 10:10:14;;;;;;;13.63;2.30;;;12.60;99.90;;;;;;5050258;28;20086;-50
2023/03/10 10:12:42;;;;;;;12.70;2.20;;;12.90;99.90;;;;;;5050373;28;20392;-52
2023/03/10 10:15:26;;;;;;;15.10;2.30;;;13.00;99.90;;;;;;5049964;28;20033;-55
2023/03/10 10:18:38;;;;;;;14.40;2.70;;;13.10;99.90;;;;;;5049894;28;20916;-53
2023/03/10 10:21:15;;;;;;;9.90;2.20;;;13.10;99.90;;;;;;4949576;29;20035;-54
2023/03/10 10:23:47;;;;;;;10.70;2.25;;;13.10;99.90;;;;;;4949538;29;20557;-53
2023/03/10 10:26:26;;;;;;;7.43;1.70;;;13.20;99.90;;;;;;5014132;28;20041;-54
2023/03/10 10:29:00;;;;;;;12.35;2.05;;;13.30;99.90;;;;;;5049960;28;20025;-53
2023/03/10 10:31:31;;;;;;;9.45;1.80;;;13.60;99.90;;;;;;5050010;28;20068;-54
2023/03/10 10:34:02;;;;;;;9.63;2.28;;;14.00;99.90;;;;;;5049717;28;20039;-52
2023/03/10 10:36:36;;;;;;;10.32;2.15;;;14.50;99.90;;;;;;5049750;28;20166;-53
2023/03/10 10:39:18;;;;;;;8.57;2.17;;;14.80;99.90;;;;;;5049910;28;20477;-55
2023/03/10 10:41:44;;;;;;;12.48;2.33;;;14.80;99.90;;;;;;5049931;28;20502;-53
2023/03/10 10:44:16;;;;;;;18.80;8.32;;;14.50;99.90;;;;;;5049761;28;20033;-54
2023/03/10 10:46:56;;;;;;;11.95;3.22;;;14.30;99.90;;;;;;5053052;28;20032;-53
2023/03/10 10:49:24;;;;;;;11.40;2.15;;;13.90;99.90;;;;;;5053505;28;20470;-54
2023/03/10 10:51:59;;;;;;;7.07;1.85;;;13.80;99.90;;;;;;5053744;28;20170;-55
2023/03/10 10:54:33;;;;;;;8.07;2.22;;;13.70;99.90;;;;;;5081577;22;20059;-53
2023/03/10 10:57:00;;;;;;;7.35;1.65;;;13.90;99.90;;;;;;5073244;28;20028;-53
2023/03/10 10:59:29;;;;;;;10.32;1.85;;;14.30;99.90;;;;;;5073605;28;20112;-50
2023/03/10 11:01:57;;;;;;;10.05;1.90;;;14.40;99.90;;;;;;5073577;28;20021;-52
2023/03/10 11:04:26;;;;;;;11.32;2.05;;;14.20;99.90;;;;;;5089623;28;20024;-53
2023/03/10 11:07:06;;;;;;;5.00;1.38;;;14.20;99.90;;;;;;5093436;28;20024;-49
2023/03/10 11:09:32;;;;;;;8.70;1.70;;;14.00;99.90;;;;;;5093434;28;20040;-53
2023/03/10 11:12:18;;;;;;;7.32;1.58;;;13.80;99.90;;;;;;5093424;28;20035;-49
2023/03/10 11:15:15;;;;;;;5.35;1.48;;;13.50;99.90;;;;;;5093011;28;20122;-52
2023/03/10 11:18:10;;;;;;;6.68;1.63;;;13.40;99.90;;;;;;5093003;28;20415;-53
2023/03/10 11:21:06;;;;;;;8.77;1.30;;;13.30;99.90;;;;;;5092902;28;20028;-54
2023/03/10 11:23:53;;;;;;;7.93;1.58;;;13.20;99.90;;;;;;5093113;28;20374;-52
2023/03/10 11:26:57;;;;;;;6.70;1.17;;;13.10;99.90;;;;;;5093150;28;20221;-54
2023/03/10 11:29:41;;;;;;;8.52;1.73;;;13.00;99.90;;;;;;5090780;28;20036;-53
2023/03/10 11:32:39;;;;;;;8.45;2.10;;;12.80;99.90;;;;;;5092947;28;20035;-54
2023/03/10 11:35:33;;;;;;;7.00;1.50;;;12.60;99.90;;;;;;5093179;28;20384;-53
2023/03/10 11:38:18;;;;;;;8.65;1.10;;;12.40;99.90;;;;;;5092871;28;20108;-53
2023/03/10 11:40:48;;;;;;;9.05;1.83;;;12.00;99.90;;;;;;5092833;28;20047;-54
2023/03/10 11:43:46;;;;;;;6.07;1.38;;;11.80;99.90;;;;;;5092624;28;20081;-53
2023/03/10 11:46:43;;;;;;;5.28;0.95;;;11.70;99.90;;;;;;5093081;28;20085;-53
2023/03/10 11:49:18;;;;;;;4.30;0.88;;;11.60;99.90;;;;;;5092754;28;20333;-54
2023/03/10 11:51:55;;;;;;;4.00;1.10;;;11.50;99.90;;;;;;5092634;28;20038;-52
2023/03/10 11:54:33;;;;;;;6.90;0.90;;;11.50;99.90;;;;;;5092310;28;20127;-52
2023/03/10 11:57:09;;;;;;;4.13;0.90;;;11.30;99.90;;;;;;5091556;28;20071;-52
2023/03/10 11:59:40;;;;;;;4.67;1.00;;;11.20;99.90;;;;;;5092416;28;20032;-51
2023/03/10 12:02:17;;;;;;;3.33;0.87;;;11.00;99.90;;;;;;5092449;28;20032;-51
2023/03/10 12:05:01;;;;;;;6.63;1.60;;;10.80;99.90;;;;;;5092201;28;20476;-53
2023/03/10 12:07:35;;;;;;;3.83;0.70;;;10.60;99.90;;;;;;5092353;28;20024;-52
2023/03/10 12:10:15;;;;;;;3.93;0.90;;;10.40;99.90;;;;;;5092344;28;20115;-54
2023/03/10 12:12:46;;;;;;;6.93;0.90;;;10.30;99.90;;;;;;5092137;28;20043;-53
2023/03/10 12:15:29;;;;;;;5.27;1.00;;;10.20;99.90;;;;;;5092028;28;20027;-51
2023/03/10 12:17:55;;;;;;;5.83;1.00;;;10.20;99.90;;;;;;5092120;28;20118;-53
2023/03/10 12:20:21;;;;;;;4.83;1.00;;;10.10;99.90;;;;;;5092009;28;20032;-51
2023/03/10 12:23:09;;;;;;;4.60;1.13;;;10.20;99.90;;;;;;5091929;28;20092;-54
2023/03/10 12:25:37;;;;;;;5.93;0.98;;;10.20;99.90;;;;;;5079335;28;20499;-52
2023/03/10 12:28:23;;;;;;;4.17;0.90;;;10.20;99.90;;;;;;5091779;28;20035;-56
2023/03/10 12:30:55;;;;;;;6.13;1.00;;;10.10;99.90;;;;;;5091866;28;20039;-52
2023/03/10 12:33:30;;;;;;;5.70;1.10;;;10.10;99.90;;;;;;5091534;28;20099;-53
2023/03/10 12:36:11;;;;;;;6.03;0.97;;;10.00;99.90;;;;;;5091805;28;20032;-53
2023/03/10 12:38:43;;;;;;;3.47;1.27;;;10.00;99.90;;;;;;5091784;28;20032;-53
2023/03/10 12:41:10;;;;;;;3.87;0.80;;;9.90;99.90;;;;;;5091608;28;20052;-56
2023/03/10 12:43:52;;;;;;;2.67;0.90;;;9.90;99.90;;;;;;5091181;28;20032;-53
2023/03/10 12:46:44;;;;;;;2.40;0.80;;;9.80;99.90;;;;;;5091783;28;20028;-54
2023/03/10 12:49:34;;;;;;;7.97;1.03;;;9.80;99.90;;;;;;5053277;28;20032;-49
2023/03/10 12:52:06;;;;;;;3.97;0.80;;;9.70;99.90;;;;;;5091323;28;20027;-52
2023/03/10 12:54:43;;;;;;;5.73;1.10;;;9.70;99.90;;;;;;5091137;28;20104;-52
2023/03/10 12:57:16;;;;;;;5.43;1.17;;;9.70;99.90;;;;;;5091445;28;20396;-51
2023/03/10 13:00:17;;;;;;;5.33;1.57;;;9.70;99.90;;;;;;5091254;28;20032;-54
2023/03/10 13:02:48;;;;;;;7.47;1.37;;;9.70;99.90;;;;;;5065074;28;20059;-54
2023/03/10 13:05:26;;;;;;;3.87;1.00;;;9.70;99.90;;;;;;5091346;28;20036;-54
2023/03/10 13:07:57;;;;;;;3.00;0.93;;;9.60;99.90;;;;;;5091008;28;20480;-50